Severn, MD (21144)

5:00 PM EDT on June 02, 2015 (GMT -0400)
Quail Run | | Change Station
CLOSE
Current Station
Personal Weather Station
Location: Severn, MD
Elevation: 174 ft
Nearby Weather Stations

Elev 174 ft 39.13 °N, 76.71 °W | Updated 52 seconds ago

Overcast
Overcast
59.0 °F
Feels Like 59.0 °F
N
0.0
Wind Variable Wind from NE
Gusts 0.0 mph

Today
High -- | Low -- °F
--% Chance of Precip.
Yesterday
High -- | Low -- °F
Precip. -- in
5:42 AM 8:27 PM
Full, 100% visible
Pressure 30.09 in
Visibility 10.0 miles
Clouds Mostly Cloudy 900 ft
Overcast 1600 ft
Dew Point 56 °F
Humidity 89%
Rainfall 0.48 in
Snow Depth Not available.
UV 1.0 out of 12
Pollen .20 out of 12
Air Quality Not available.
Flu Activity Sporadic
METAR KBWI 022054Z 03010KT 10SM BKN009 OVC016 15/12 A3009 RMK AO2 SLP188 60000 T01500122 55005

More Conditions Fewer Conditions

Pressure 30.09 in
Visibility 10.0 miles
Clouds Mostly Cloudy 900 ft
Overcast 1600 ft
Dew Point 56 °F
Humidity 89%
Rainfall 0.48 in
Snow Depth Not available.
UV 1.0 out of 12
Pollen .20 out of 12
Air Quality Not available.
Flu Activity Sporadic
METAR KBWI 022054Z 03010KT 10SM BKN009 OVC016 15/12 A3009 RMK AO2 SLP188 60000 T01500122 55005

More Conditions Fewer Conditions

10-Day Weather Forecast

×

Almanac

Astronomy

Jun. 02, 2015 Rise Set
Actual Time
Civil Twilight
Nautical Twilight
Astronomical Twilight
Moon
Length of Visible Light
Length of Day
Tomorrow will be .
, % of the Moon is Illuminated

Today's Extremes

State Highs State Lows

Community

WunderPhotos

Upload Photos

1,826,034 photos uploaded!

WunderBlogs® & News

Nearby

Air Quality

  Air Quality AQ Index Pollutant
Not available.

Snow Depth

Station Depth Elevation

Earthquake Activity

City Distance Mag. Time & Date
Minimum magnitude displayed is 2.5.

Coastal Water Temperatures

Place Temperature

Stations

Nearby Weather Stations

Station Location Temp. Windchill Dew Point Humidity Wind Precip. Elev Updated Type